createdAt,value
2023-01-29T00:02:21.555Z,33.07
2023-01-29T00:04:51.007Z,33.97
2023-01-29T00:07:19.066Z,36.10
2023-01-29T00:09:48.060Z,37.10
2023-01-29T00:12:16.480Z,34.60
2023-01-29T00:14:44.647Z,33.17
2023-01-29T00:17:12.830Z,32.27
2023-01-29T00:19:40.977Z,34.33
2023-01-29T00:22:10.555Z,33.10
2023-01-29T00:24:38.762Z,33.87
2023-01-29T00:27:06.951Z,34.70
2023-01-29T00:29:35.049Z,35.37
2023-01-29T00:32:03.294Z,36.27
2023-01-29T00:34:31.455Z,36.80
2023-01-29T00:37:05.163Z,35.27
2023-01-29T00:39:47.453Z,35.77
2023-01-29T00:42:33.776Z,36.20
2023-01-29T00:45:01.857Z,34.07
2023-01-29T00:47:33.689Z,33.40
2023-01-29T00:50:02.806Z,33.03
2023-01-29T00:52:31.086Z,35.03
2023-01-29T00:55:01.573Z,35.03
2023-01-29T00:57:32.787Z,34.00
2023-01-29T01:00:01.007Z,34.07
2023-01-29T01:02:47.221Z,34.90
2023-01-29T01:05:18.930Z,37.63
2023-01-29T01:07:48.143Z,36.03
2023-01-29T01:10:21.964Z,37.60
2023-01-29T01:12:54.176Z,36.73
2023-01-29T01:15:23.994Z,36.00
2023-01-29T01:17:55.787Z,35.57
2023-01-29T01:20:24.097Z,36.23
2023-01-29T01:22:52.815Z,36.37
2023-01-29T01:25:22.692Z,36.60
2023-01-29T01:27:53.733Z,36.87
2023-01-29T01:30:22.253Z,38.43
2023-01-29T01:32:50.347Z,37.73
2023-01-29T01:35:18.533Z,37.60
2023-01-29T01:37:47.040Z,37.20
2023-01-29T01:40:19.453Z,39.30
2023-01-29T01:42:50.938Z,37.77
2023-01-29T01:45:27.839Z,38.53
2023-01-29T01:48:00.535Z,40.53
2023-01-29T01:50:33.367Z,38.30
2023-01-29T01:53:05.840Z,37.23
2023-01-29T01:55:36.380Z,37.10
2023-01-29T01:58:10.947Z,36.63
2023-01-29T02:00:40.177Z,37.33
2023-01-29T02:03:28.773Z,38.07
2023-01-29T02:06:16.607Z,37.33
2023-01-29T02:09:08.645Z,40.03
2023-01-29T02:11:37.529Z,37.17
2023-01-29T02:14:07.480Z,38.50
2023-01-29T02:16:36.540Z,36.60
2023-01-29T02:19:11.322Z,38.30
2023-01-29T02:22:06.923Z,38.53
2023-01-29T02:24:59.960Z,39.13
2023-01-29T02:27:36.578Z,38.27
2023-01-29T02:30:12.451Z,38.60
2023-01-29T02:32:54.483Z,37.17
2023-01-29T02:35:31.895Z,37.20
2023-01-29T02:38:10.715Z,37.20
2023-01-29T02:40:44.596Z,36.70
2023-01-29T02:43:25.117Z,37.00
2023-01-29T02:46:04.676Z,35.80
2023-01-29T02:48:41.756Z,37.43
2023-01-29T02:51:18.334Z,35.90
2023-01-29T02:53:54.501Z,36.40
2023-01-29T02:56:27.983Z,36.50
2023-01-29T02:59:01.290Z,34.90
2023-01-29T03:01:36.798Z,35.07
2023-01-29T03:04:10.539Z,34.00
2023-01-29T03:06:42.281Z,34.93
2023-01-29T03:09:14.728Z,34.93
2023-01-29T03:11:47.168Z,36.17
2023-01-29T03:14:18.039Z,36.53
2023-01-29T03:16:51.790Z,35.70
2023-01-29T03:19:21.853Z,35.63
2023-01-29T03:21:59.150Z,35.90
2023-01-29T03:24:53.705Z,35.80
2023-01-29T03:27:43.601Z,38.30
2023-01-29T03:30:34.812Z,38.57
2023-01-29T03:33:07.708Z,39.13
2023-01-29T03:35:39.604Z,37.47
2023-01-29T03:38:11.098Z,36.50
2023-01-29T03:40:47.529Z,34.67
2023-01-29T03:43:24.856Z,34.23
2023-01-29T03:46:02.768Z,38.60
2023-01-29T03:48:37.677Z,33.50
2023-01-29T03:51:21.157Z,32.97
2023-01-29T03:53:54.785Z,32.40
2023-01-29T03:56:35.497Z,33.47
2023-01-29T03:59:11.994Z,32.30
2023-01-29T04:01:47.534Z,31.70
2023-01-29T04:04:22.208Z,32.00
2023-01-29T04:06:53.098Z,32.00
2023-01-29T04:09:25.064Z,30.97
2023-01-29T04:11:58.688Z,30.07
2023-01-29T04:14:26.965Z,31.23
2023-01-29T04:16:58.827Z,30.10
2023-01-29T04:19:29.241Z,29.80
2023-01-29T04:22:06.981Z,30.80
2023-01-29T04:24:36.035Z,30.33
2023-01-29T04:27:20.875Z,29.70
2023-01-29T04:30:03.642Z,29.27
2023-01-29T04:32:39.853Z,30.10
2023-01-29T04:35:19.799Z,29.40
2023-01-29T04:37:58.081Z,30.80
2023-01-29T04:40:32.420Z,29.30
2023-01-29T04:43:07.719Z,29.13
2023-01-29T04:45:49.380Z,28.90
2023-01-29T04:48:23.490Z,29.30
2023-01-29T04:50:58.567Z,27.30
2023-01-29T04:53:33.990Z,27.10
2023-01-29T04:56:10.253Z,26.80
2023-01-29T04:58:41.082Z,27.13
2023-01-29T05:01:13.086Z,27.23
2023-01-29T05:03:44.180Z,27.80
2023-01-29T05:06:16.912Z,27.37
2023-01-29T05:08:45.463Z,27.03
2023-01-29T05:11:14.340Z,26.47
2023-01-29T05:13:44.084Z,27.40
2023-01-29T05:16:18.440Z,27.40
2023-01-29T05:18:47.072Z,30.93
2023-01-29T05:21:16.580Z,26.13
2023-01-29T05:23:53.212Z,25.17
2023-01-29T05:26:40.078Z,24.87
2023-01-29T05:29:08.209Z,24.67
2023-01-29T05:31:36.308Z,23.97
2023-01-29T05:34:04.420Z,23.63
2023-01-29T05:36:33.818Z,24.03
2023-01-29T05:39:02.952Z,26.10
2023-01-29T05:41:31.079Z,25.53
2023-01-29T05:43:59.454Z,24.70
2023-01-29T05:46:27.678Z,24.80
2023-01-29T05:48:55.809Z,24.80
2023-01-29T05:51:23.943Z,25.13
2023-01-29T05:53:53.366Z,23.80
2023-01-29T05:56:21.513Z,24.03
2023-01-29T05:58:49.732Z,23.93
2023-01-29T06:01:19.958Z,24.50
2023-01-29T06:03:48.328Z,24.60
2023-01-29T06:06:17.022Z,24.93
2023-01-29T06:08:45.083Z,24.10
2023-01-29T06:11:16.450Z,23.70
2023-01-29T06:13:44.712Z,23.70
2023-01-29T06:16:14.400Z,24.00
2023-01-29T06:18:43.050Z,24.90
2023-01-29T06:21:13.413Z,24.57
2023-01-29T06:23:41.898Z,24.53
2023-01-29T06:26:12.591Z,25.10
2023-01-29T06:28:42.354Z,24.93
2023-01-29T06:31:30.411Z,25.00
2023-01-29T06:33:59.885Z,24.67
2023-01-29T06:36:28.078Z,25.27
2023-01-29T06:38:56.128Z,25.10
2023-01-29T06:41:25.676Z,24.43
2023-01-29T06:43:55.174Z,23.97
2023-01-29T06:46:23.443Z,24.90
2023-01-29T06:48:51.666Z,24.67
2023-01-29T06:51:21.346Z,23.87
2023-01-29T06:53:49.367Z,22.33
2023-01-29T06:56:17.474Z,23.23
2023-01-29T06:58:45.540Z,22.90
2023-01-29T07:01:29.317Z,22.63
2023-01-29T07:04:03.270Z,22.03
2023-01-29T07:06:32.022Z,23.00
2023-01-29T07:09:00.200Z,22.20
2023-01-29T07:11:28.253Z,22.37
2023-01-29T07:13:56.287Z,22.40
2023-01-29T07:16:26.406Z,23.33
2023-01-29T07:18:54.740Z,21.30
2023-01-29T07:21:23.072Z,21.07
2023-01-29T07:23:51.147Z,20.97
2023-01-29T07:26:19.731Z,21.40
2023-01-29T07:28:47.776Z,23.73
2023-01-29T07:31:16.832Z,20.60
2023-01-29T07:33:47.193Z,20.83
2023-01-29T07:36:15.988Z,20.40
2023-01-29T07:38:44.377Z,21.27
2023-01-29T07:41:13.636Z,20.77
2023-01-29T07:43:41.635Z,21.60
2023-01-29T07:46:10.092Z,21.80
2023-01-29T07:48:38.281Z,20.30
2023-01-29T07:51:07.942Z,20.27
2023-01-29T07:53:37.059Z,20.40
2023-01-29T07:56:05.625Z,20.10
2023-01-29T07:58:35.742Z,19.93
2023-01-29T08:01:08.036Z,19.90
2023-01-29T08:03:36.573Z,21.07
2023-01-29T08:06:05.101Z,18.60
2023-01-29T08:08:35.893Z,18.50
2023-01-29T08:11:05.695Z,21.77
2023-01-29T08:13:34.231Z,19.17
2023-01-29T08:16:03.692Z,19.40
2023-01-29T08:18:32.453Z,18.40
2023-01-29T08:21:01.386Z,18.07
2023-01-29T08:23:29.511Z,18.70
2023-01-29T08:25:59.089Z,18.70
2023-01-29T08:28:27.454Z,18.33
2023-01-29T08:30:55.753Z,18.50
2023-01-29T08:33:37.174Z,18.80
2023-01-29T08:36:08.036Z,18.47
2023-01-29T08:38:36.474Z,18.40
2023-01-29T08:41:06.293Z,19.20
2023-01-29T08:43:35.279Z,17.80
2023-01-29T08:46:05.261Z,20.30
2023-01-29T08:48:33.611Z,18.83
2023-01-29T08:51:02.655Z,18.53
2023-01-29T08:53:30.955Z,17.70
2023-01-29T08:55:59.065Z,18.57
2023-01-29T08:58:28.580Z,19.57
2023-01-29T09:00:56.720Z,18.50
2023-01-29T09:03:24.915Z,17.93
2023-01-29T09:05:53.019Z,19.13
2023-01-29T09:08:21.080Z,18.60
2023-01-29T09:10:49.120Z,18.07
2023-01-29T09:13:17.331Z,18.00
2023-01-29T09:15:46.803Z,18.20
2023-01-29T09:18:14.765Z,18.20
2023-01-29T09:20:42.879Z,18.60
2023-01-29T09:23:12.149Z,18.30
2023-01-29T09:25:40.261Z,18.53
2023-01-29T09:28:08.371Z,18.80
2023-01-29T09:30:38.178Z,18.27
2023-01-29T09:33:08.535Z,18.63
2023-01-29T09:35:37.058Z,19.03
2023-01-29T09:38:05.171Z,17.97
2023-01-29T09:40:39.481Z,18.20
2023-01-29T09:43:14.066Z,20.50
2023-01-29T09:45:50.965Z,18.90
2023-01-29T09:48:23.328Z,18.20
2023-01-29T09:50:55.127Z,18.70
2023-01-29T09:53:29.621Z,18.20
2023-01-29T09:56:03.196Z,18.60
2023-01-29T09:58:34.806Z,18.10
2023-01-29T10:01:14.451Z,17.80
2023-01-29T10:04:08.589Z,18.33
2023-01-29T10:06:50.001Z,18.00
2023-01-29T10:09:49.067Z,17.97
2023-01-29T10:12:31.953Z,18.47
2023-01-29T10:15:08.680Z,18.03
2023-01-29T10:17:51.541Z,17.90
2023-01-29T10:20:45.157Z,20.43
2023-01-29T10:23:21.391Z,18.27
2023-01-29T10:25:50.736Z,18.60
2023-01-29T10:28:21.496Z,17.80
2023-01-29T10:30:51.684Z,19.93
2023-01-29T10:33:29.551Z,17.93
2023-01-29T10:36:04.552Z,19.00
2023-01-29T10:38:41.071Z,20.40
2023-01-29T10:41:43.941Z,17.70
2023-01-29T10:44:35.513Z,18.17
2023-01-29T10:47:27.587Z,17.90
2023-01-29T10:50:17.094Z,17.77
2023-01-29T10:53:04.410Z,17.13
2023-01-29T10:55:47.648Z,17.37
2023-01-29T10:58:26.753Z,17.60
2023-01-29T11:00:54.833Z,17.37
2023-01-29T11:03:28.384Z,17.50
2023-01-29T11:06:02.949Z,19.03
2023-01-29T11:08:38.480Z,18.07
2023-01-29T11:11:09.871Z,17.37
2023-01-29T11:13:42.359Z,18.13
2023-01-29T11:16:11.206Z,17.80
2023-01-29T11:18:53.922Z,17.50
2023-01-29T11:21:22.944Z,16.90
2023-01-29T11:24:05.722Z,17.23
2023-01-29T11:26:36.709Z,17.90
2023-01-29T11:29:05.986Z,16.90
2023-01-29T11:31:38.558Z,16.83
2023-01-29T11:34:14.784Z,17.70
2023-01-29T11:36:44.941Z,17.30
2023-01-29T11:39:24.705Z,17.43
2023-01-29T11:41:57.348Z,17.20
2023-01-29T11:44:30.907Z,17.00
2023-01-29T11:47:11.403Z,17.73
2023-01-29T11:49:40.779Z,17.90
2023-01-29T11:52:11.215Z,17.60
2023-01-29T11:54:45.347Z,17.67
2023-01-29T11:57:25.506Z,17.00
2023-01-29T11:59:56.197Z,18.30
2023-01-29T12:02:44.274Z,17.17
2023-01-29T12:05:17.382Z,18.10
2023-01-29T12:07:48.985Z,18.97
2023-01-29T12:10:36.529Z,18.23
2023-01-29T12:13:22.681Z,17.30
2023-01-29T12:15:51.364Z,17.70
2023-01-29T12:18:29.781Z,17.50
2023-01-29T12:21:02.573Z,17.33
2023-01-29T12:23:39.336Z,17.40
2023-01-29T12:26:15.960Z,17.50
2023-01-29T12:28:51.601Z,17.90
2023-01-29T12:31:30.192Z,18.40
2023-01-29T12:34:05.693Z,19.10
2023-01-29T12:36:39.649Z,17.60
2023-01-29T12:39:09.945Z,17.40
2023-01-29T12:41:46.263Z,17.97
2023-01-29T12:44:17.999Z,17.87
2023-01-29T12:46:50.492Z,18.07
2023-01-29T12:49:27.096Z,18.53
2023-01-29T12:52:00.456Z,18.90
2023-01-29T12:54:36.199Z,18.03
2023-01-29T12:57:11.490Z,18.30
2023-01-29T12:59:44.176Z,20.10
2023-01-29T13:02:21.532Z,18.50
2023-01-29T13:04:56.903Z,18.27
2023-01-29T13:07:29.482Z,18.50
2023-01-29T13:10:05.641Z,19.00
2023-01-29T13:12:35.739Z,18.90
2023-01-29T13:15:11.407Z,18.60
2023-01-29T13:17:44.189Z,18.23
2023-01-29T13:20:19.136Z,18.30
2023-01-29T13:22:49.279Z,19.37
2023-01-29T13:25:18.979Z,18.17
2023-01-29T13:27:49.499Z,18.30
2023-01-29T13:30:29.193Z,18.60
2023-01-29T13:33:09.214Z,18.50
2023-01-29T13:35:40.964Z,17.70
2023-01-29T13:38:24.755Z,19.67
2023-01-29T13:41:02.128Z,18.20
2023-01-29T13:43:37.216Z,18.63
2023-01-29T13:46:10.731Z,18.60
2023-01-29T13:48:43.569Z,17.57
2023-01-29T13:51:16.943Z,18.53
2023-01-29T13:53:52.735Z,19.83
2023-01-29T13:56:42.619Z,18.67
2023-01-29T13:59:24.144Z,17.63
2023-01-29T14:02:03.978Z,17.50
2023-01-29T14:04:33.172Z,18.37
2023-01-29T14:07:04.098Z,20.17
2023-01-29T14:10:04.800Z,17.37
2023-01-29T14:12:51.044Z,18.27
2023-01-29T14:15:34.768Z,18.10
2023-01-29T14:18:20.919Z,18.60
2023-01-29T14:20:59.394Z,18.27
2023-01-29T14:23:41.098Z,18.17
2023-01-29T14:26:23.472Z,17.83
2023-01-29T14:28:58.568Z,18.10
2023-01-29T14:31:41.662Z,18.20
2023-01-29T14:34:19.455Z,18.83
2023-01-29T14:36:50.431Z,18.70
2023-01-29T14:39:30.273Z,18.27
2023-01-29T14:41:59.308Z,18.10
2023-01-29T14:45:06.860Z,19.17
2023-01-29T14:47:59.648Z,17.90
2023-01-29T14:50:55.104Z,17.87
2023-01-29T14:53:48.535Z,18.13
2023-01-29T14:56:20.108Z,18.10
2023-01-29T14:58:51.082Z,17.50
2023-01-29T15:01:26.309Z,17.80
2023-01-29T15:04:01.392Z,17.50
2023-01-29T15:06:35.110Z,17.10
2023-01-29T15:09:13.180Z,17.70
2023-01-29T15:11:49.616Z,17.40
2023-01-29T15:14:30.909Z,18.27
2023-01-29T15:17:17.178Z,17.20
2023-01-29T15:19:48.982Z,17.40
2023-01-29T15:22:18.687Z,17.70
2023-01-29T15:24:48.196Z,18.40
2023-01-29T15:27:19.246Z,17.90
2023-01-29T15:29:54.366Z,19.10
2023-01-29T15:32:30.575Z,18.43
2023-01-29T15:35:01.413Z,19.60
2023-01-29T15:37:32.074Z,18.83
2023-01-29T15:40:02.429Z,18.60
2023-01-29T15:42:42.455Z,19.30
2023-01-29T15:45:23.260Z,18.20
2023-01-29T15:47:52.351Z,18.33
2023-01-29T15:50:22.935Z,17.27
2023-01-29T15:52:53.111Z,17.70
2023-01-29T15:55:24.212Z,18.53
2023-01-29T15:57:52.622Z,17.97
2023-01-29T16:00:24.753Z,17.80
2023-01-29T16:02:53.066Z,17.77
2023-01-29T16:05:26.532Z,19.27
2023-01-29T16:07:56.447Z,18.47
2023-01-29T16:10:27.496Z,19.23
2023-01-29T16:12:56.197Z,19.93
2023-01-29T16:15:32.321Z,19.80
2023-01-29T16:18:01.763Z,19.77
2023-01-29T16:20:38.050Z,20.73
2023-01-29T16:23:07.494Z,20.77
2023-01-29T16:25:37.539Z,23.60
2023-01-29T16:28:07.557Z,23.97
2023-01-29T16:30:35.755Z,24.77
2023-01-29T16:33:05.762Z,28.80
2023-01-29T16:35:36.818Z,24.23
2023-01-29T16:38:14.557Z,24.70
2023-01-29T16:41:15.429Z,27.17
2023-01-29T16:43:48.934Z,28.23
2023-01-29T16:46:25.224Z,25.90
2023-01-29T16:48:54.177Z,26.07
2023-01-29T16:51:29.724Z,25.37
2023-01-29T16:54:00.663Z,26.50
2023-01-29T16:56:31.940Z,25.80
2023-01-29T16:59:01.231Z,26.00
2023-01-29T17:01:31.001Z,27.53
2023-01-29T17:04:08.385Z,28.57
2023-01-29T17:06:38.332Z,28.67
2023-01-29T17:09:07.813Z,29.13
2023-01-29T17:11:39.438Z,29.23
2023-01-29T17:14:09.093Z,30.57
2023-01-29T17:16:49.785Z,27.47
2023-01-29T17:19:20.840Z,28.93
2023-01-29T17:21:50.488Z,28.30
2023-01-29T17:24:18.592Z,26.70
2023-01-29T17:26:46.872Z,25.67
2023-01-29T17:29:18.982Z,26.03
2023-01-29T17:31:47.192Z,24.13
2023-01-29T17:34:17.818Z,25.00
2023-01-29T17:36:46.552Z,26.30
2023-01-29T17:39:20.159Z,25.60
2023-01-29T17:41:51.990Z,24.20
2023-01-29T17:44:20.473Z,23.70
2023-01-29T17:46:49.374Z,26.43
2023-01-29T17:49:24.718Z,24.30
2023-01-29T17:51:53.396Z,23.57
2023-01-29T17:54:23.882Z,27.50
2023-01-29T17:56:52.956Z,24.93
2023-01-29T17:59:22.957Z,25.00
2023-01-29T18:01:52.038Z,25.10
2023-01-29T18:04:20.160Z,25.60
2023-01-29T18:06:50.227Z,27.63
2023-01-29T18:09:20.445Z,28.00
2023-01-29T18:11:51.229Z,26.70
2023-01-29T18:14:19.305Z,26.50
2023-01-29T18:16:47.837Z,26.00
2023-01-29T18:19:20.521Z,25.50
2023-01-29T18:21:48.875Z,25.80
2023-01-29T18:24:17.279Z,25.83
2023-01-29T18:26:45.401Z,25.93
2023-01-29T18:29:14.992Z,25.30
2023-01-29T18:31:43.175Z,24.80
2023-01-29T18:34:11.363Z,24.37
2023-01-29T18:36:39.563Z,25.17
2023-01-29T18:39:07.642Z,26.17
2023-01-29T18:41:35.762Z,23.20
2023-01-29T18:44:03.841Z,25.23
2023-01-29T18:46:33.454Z,24.00
2023-01-29T18:49:01.462Z,24.73
2023-01-29T18:51:29.578Z,25.47
2023-01-29T18:53:57.655Z,24.40
2023-01-29T18:56:25.843Z,25.27
2023-01-29T18:58:56.278Z,25.17
2023-01-29T19:01:24.911Z,24.67
2023-01-29T19:03:54.424Z,26.57
2023-01-29T19:06:22.588Z,27.47
2023-01-29T19:08:50.829Z,28.43
2023-01-29T19:11:18.930Z,29.50
2023-01-29T19:13:47.992Z,29.17
2023-01-29T19:16:15.992Z,30.37
2023-01-29T19:18:44.633Z,29.17
2023-01-29T19:21:16.024Z,29.83
2023-01-29T19:23:44.872Z,30.50
2023-01-29T19:26:13.345Z,30.30
2023-01-29T19:28:42.102Z,31.60
2023-01-29T19:31:10.933Z,33.03
2023-01-29T19:33:39.342Z,31.93
2023-01-29T19:36:08.353Z,31.80
2023-01-29T19:38:38.710Z,32.67
2023-01-29T19:41:07.233Z,33.33
2023-01-29T19:43:35.342Z,34.33
2023-01-29T19:46:03.730Z,34.80
2023-01-29T19:48:31.818Z,36.40
2023-01-29T19:51:01.489Z,36.87
2023-01-29T19:53:30.012Z,36.70
2023-01-29T19:56:00.407Z,36.40
2023-01-29T19:58:28.855Z,36.43
2023-01-29T20:00:58.299Z,36.80
2023-01-29T20:03:27.998Z,34.80
2023-01-29T20:05:56.513Z,41.35
2023-01-29T20:08:24.892Z,38.63
2023-01-29T20:10:52.957Z,39.23
2023-01-29T20:13:22.655Z,39.50
2023-01-29T20:15:52.306Z,37.70
2023-01-29T20:18:20.679Z,40.30
2023-01-29T20:20:50.688Z,39.97
2023-01-29T20:23:36.584Z,41.93
2023-01-29T20:26:07.035Z,39.67
2023-01-29T20:28:36.833Z,41.37
2023-01-29T20:31:05.996Z,41.87
2023-01-29T20:33:34.700Z,43.27
2023-01-29T20:36:04.964Z,43.20
2023-01-29T20:38:34.657Z,45.10
2023-01-29T20:41:07.935Z,45.47
2023-01-29T20:43:37.537Z,46.13
2023-01-29T20:46:06.478Z,46.47
2023-01-29T20:48:35.038Z,48.80
2023-01-29T20:51:08.047Z,49.77
2023-01-29T20:53:36.863Z,49.00
2023-01-29T20:56:05.713Z,51.47
2023-01-29T20:58:34.285Z,52.07
2023-01-29T21:01:08.422Z,51.87
2023-01-29T21:03:36.524Z,50.80
2023-01-29T21:06:04.787Z,51.87
2023-01-29T21:08:33.395Z,52.90
2023-01-29T21:11:01.482Z,53.00
2023-01-29T21:13:29.613Z,56.43
2023-01-29T21:15:57.796Z,53.60
2023-01-29T21:18:27.607Z,55.20
2023-01-29T21:20:55.833Z,56.97
2023-01-29T21:23:23.951Z,60.43
2023-01-29T21:25:52.178Z,58.70
2023-01-29T21:28:20.211Z,57.90
2023-01-29T21:30:48.346Z,60.30
2023-01-29T21:33:16.492Z,60.13
2023-01-29T21:35:45.935Z,60.93
2023-01-29T21:38:14.092Z,61.30
2023-01-29T21:40:42.207Z,62.80
2023-01-29T21:43:12.592Z,62.60
2023-01-29T21:45:41.498Z,63.83
2023-01-29T21:48:12.369Z,64.47
2023-01-29T21:50:40.444Z,63.03
2023-01-29T21:53:09.903Z,61.27
2023-01-29T21:55:38.075Z,63.00
2023-01-29T21:58:06.272Z,60.47
2023-01-29T22:00:34.425Z,62.20
2023-01-29T22:03:02.678Z,62.20
2023-01-29T22:05:30.758Z,62.93
2023-01-29T22:07:58.926Z,62.43
2023-01-29T22:10:28.649Z,63.90
2023-01-29T22:12:57.850Z,64.13
2023-01-29T22:15:25.937Z,62.00
2023-01-29T22:17:53.858Z,64.93
2023-01-29T22:20:29.565Z,63.97
2023-01-29T22:23:00.346Z,64.00
2023-01-29T22:25:29.985Z,63.97
2023-01-29T22:27:58.073Z,63.20
2023-01-29T22:30:26.442Z,64.70
2023-01-29T22:32:54.547Z,66.43
2023-01-29T22:35:22.725Z,65.20
2023-01-29T22:37:50.848Z,65.33
2023-01-29T22:40:19.542Z,67.27
2023-01-29T22:42:49.108Z,66.10
2023-01-29T22:45:17.312Z,66.47
2023-01-29T22:47:45.455Z,69.50
2023-01-29T22:50:14.241Z,67.67
2023-01-29T22:52:42.801Z,66.20
2023-01-29T22:55:13.170Z,63.90
2023-01-29T22:57:41.464Z,61.77
2023-01-29T23:00:12.665Z,66.30
2023-01-29T23:02:40.724Z,67.13
2023-01-29T23:05:09.518Z,67.97
2023-01-29T23:07:37.619Z,65.60
2023-01-29T23:10:07.249Z,66.77
2023-01-29T23:12:35.447Z,67.37
2023-01-29T23:15:03.595Z,69.73
2023-01-29T23:17:32.852Z,67.33
2023-01-29T23:20:01.030Z,68.33
2023-01-29T23:22:29.161Z,65.97
2023-01-29T23:24:57.356Z,66.30
2023-01-29T23:27:24.593Z,67.83
2023-01-29T23:29:52.832Z,66.43
2023-01-29T23:32:22.213Z,68.40
2023-01-29T23:34:51.646Z,66.77
2023-01-29T23:37:19.756Z,70.87
2023-01-29T23:39:48.073Z,71.63
2023-01-29T23:42:16.252Z,70.17
2023-01-29T23:44:45.040Z,71.27
2023-01-29T23:47:13.147Z,67.20
2023-01-29T23:49:41.225Z,68.13
2023-01-29T23:52:10.614Z,67.20
2023-01-29T23:54:38.663Z,69.60
2023-01-29T23:57:06.766Z,67.80
2023-01-29T23:59:34.848Z,69.03
